Time;durP1;ratioP1;P1;durP2;ratioP2;P2;SDS_P1;SDS_P2;PMS_P1;PMS_P2;Temp;Humidity;BMP_temperature;BMP_pressure;BME280_temperature;BME280_humidity;BME280_pressure;Samples;Min_cycle;Max_cycle;Signal;HPM_P1;HPM_P2
2023/01/15 00:01:04;;;;;;;2.33;1.67;;;21.30;55.20;;;;;;6185095;23;20627;-88
2023/01/15 00:03:56;;;;;;;2.47;2.00;;;21.20;55.10;;;;;;6185297;23;20392;-88
2023/01/15 00:06:35;;;;;;;1.93;1.60;;;21.20;55.10;;;;;;6184881;23;20440;-88
2023/01/15 00:09:06;;;;;;;2.47;1.83;;;21.20;55.10;;;;;;6185354;23;20352;-88
2023/01/15 00:11:32;;;;;;;2.53;1.73;;;21.20;55.20;;;;;;6159359;23;20408;-88
2023/01/15 00:14:03;;;;;;;2.30;2.10;;;21.20;55.20;;;;;;6159902;23;20378;-86
2023/01/15 00:16:29;;;;;;;3.20;1.97;;;21.20;55.70;;;;;;6159769;23;20352;-88
2023/01/15 00:19:07;;;;;;;;;;;;;;;;;;;;;
2023/01/15 00:21:41;;;;;;;2.07;1.70;;;21.20;55.20;;;;;;6184541;23;20372;-88
2023/01/15 00:29:39;;;;;;;2.20;1.73;;;21.20;55.20;;;;;;6163126;23;20370;-87
2023/01/15 00:32:06;;;;;;;2.50;2.30;;;21.10;55.10;;;;;;6184733;23;20395;-87
2023/01/15 00:34:34;;;;;;;2.30;1.80;;;21.10;55.10;;;;;;6184876;23;20155;-88
2023/01/15 00:37:04;;;;;;;2.00;1.77;;;21.10;55.10;;;;;;6159607;23;20363;-88
2023/01/15 00:39:33;;;;;;;1.60;1.50;;;21.10;55.10;;;;;;6184736;23;20348;-88
2023/01/15 00:41:59;;;;;;;1.50;1.40;;;21.20;55.20;;;;;;6184679;23;20372;-88
2023/01/15 00:44:27;;;;;;;2.10;1.70;;;21.20;55.20;;;;;;6184708;23;20419;-87
2023/01/15 00:46:53;;;;;;;1.80;1.63;;;21.20;55.20;;;;;;6159598;23;20164;-88
2023/01/15 00:49:19;;;;;;;1.80;1.60;;;21.20;55.20;;;;;;6159274;23;20465;-88
2023/01/15 00:51:53;;;;;;;1.97;1.60;;;21.20;55.20;;;;;;6183078;23;20172;-87
2023/01/15 00:54:19;;;;;;;2.03;1.77;;;21.20;55.20;;;;;;6159384;23;20139;-88
2023/01/15 00:56:45;;;;;;;3.30;1.93;;;21.10;55.10;;;;;;6183839;23;20392;-88
2023/01/15 00:59:11;;;;;;;2.23;1.57;;;21.20;55.20;;;;;;6183823;23;20149;-88
2023/01/15 01:01:37;;;;;;;2.57;2.10;;;21.10;55.10;;;;;;6184714;23;20140;-88
2023/01/15 01:04:06;;;;;;;1.73;1.47;;;21.10;55.20;;;;;;6159076;23;20399;-88
2023/01/15 01:06:37;;;;;;;2.20;1.67;;;21.10;55.20;;;;;;6184741;23;20416;-88
2023/01/15 01:09:03;;;;;;;1.80;1.50;;;21.10;55.20;;;;;;6159281;23;20372;-88
2023/01/15 01:11:33;;;;;;;1.93;1.53;;;21.10;55.20;;;;;;6183541;23;20410;-88
2023/01/15 01:14:01;;;;;;;1.97;1.73;;;21.10;55.20;;;;;;6159027;23;20394;-88
2023/01/15 01:16:36;;;;;;;2.43;1.80;;;21.10;55.20;;;;;;6184343;23;20419;-88
2023/01/15 01:19:12;;;;;;;1.97;1.73;;;21.10;55.20;;;;;;6159056;23;20368;-87
2023/01/15 01:21:39;;;;;;;2.83;1.50;;;21.10;55.20;;;;;;6159136;23;20395;-87
2023/01/15 01:24:06;;;;;;;2.00;1.80;;;21.10;55.20;;;;;;6159384;23;20467;-87
2023/01/15 01:26:36;;;;;;;2.13;1.50;;;21.10;55.20;;;;;;6184698;23;20410;-88
2023/01/15 01:29:03;;;;;;;2.50;2.03;;;21.10;55.20;;;;;;6158928;23;20396;-88
2023/01/15 01:31:29;;;;;;;1.90;1.57;;;21.10;55.20;;;;;;6159248;23;20415;-88
2023/01/15 01:33:56;;;;;;;2.30;1.70;;;21.10;55.20;;;;;;6183653;23;20372;-88
2023/01/15 01:36:30;;;;;;;1.70;1.40;;;21.10;55.20;;;;;;6158968;23;20399;-88
2023/01/15 01:38:56;;;;;;;1.93;1.50;;;21.10;55.20;;;;;;6158874;23;20398;-88
2023/01/15 01:41:22;;;;;;;1.57;1.30;;;21.10;55.30;;;;;;6184377;23;20424;-88
2023/01/15 01:44:27;;;;;;;1.93;1.77;;;21.00;55.20;;;;;;6184504;23;20388;-88
2023/01/15 01:47:02;;;;;;;1.53;1.40;;;21.10;55.30;;;;;;6158720;23;20394;-88
2023/01/15 01:49:32;;;;;;;1.47;1.30;;;21.00;55.20;;;;;;6184041;23;20417;-88
2023/01/15 01:52:07;;;;;;;2.17;1.80;;;21.00;55.20;;;;;;6158576;23;20471;-88
2023/01/15 01:54:37;;;;;;;3.30;1.73;;;21.00;55.20;;;;;;6158717;23;20376;-88
2023/01/15 01:57:05;;;;;;;1.87;1.70;;;21.00;55.20;;;;;;6158615;23;20423;-87
2023/01/15 01:59:36;;;;;;;1.83;1.43;;;21.00;55.20;;;;;;6158840;23;20376;-88
2023/01/15 02:02:03;;;;;;;1.90;1.60;;;21.00;55.20;;;;;;6184155;23;20352;-88
2023/01/15 02:04:30;;;;;;;1.87;1.40;;;21.00;55.20;;;;;;6184043;23;20376;-88
2023/01/15 02:07:06;;;;;;;2.00;1.57;;;21.00;55.20;;;;;;6158653;23;20456;-88
2023/01/15 02:09:31;;;;;;;2.07;1.53;;;21.00;55.80;;;;;;6184166;23;20352;-88
2023/01/15 02:12:05;;;;;;;2.10;1.70;;;21.00;55.30;;;;;;6184026;23;20456;-88
2023/01/15 02:15:02;;;;;;;2.83;1.60;;;21.00;55.30;;;;;;6158824;23;20132;-87
2023/01/15 02:17:31;;;;;;;2.03;1.50;;;21.00;55.30;;;;;;6173232;23;20380;-88
2023/01/15 02:20:18;;;;;;;2.03;1.50;;;21.00;55.30;;;;;;6158433;23;20372;-88
2023/01/15 02:22:54;;;;;;;2.00;1.80;;;21.00;55.30;;;;;;6158244;23;20396;-88
2023/01/15 02:25:38;;;;;;;1.63;1.40;;;21.00;55.30;;;;;;6158483;23;20379;-88
2023/01/15 02:28:14;;;;;;;1.83;1.37;;;21.00;55.30;;;;;;6183844;23;20364;-88
2023/01/15 02:30:47;;;;;;;1.80;1.50;;;21.00;55.30;;;;;;6158270;23;20498;-88
2023/01/15 02:33:20;;;;;;;1.87;1.20;;;21.00;55.30;;;;;;6158227;23;20368;-88
2023/01/15 02:35:57;;;;;;;2.43;1.80;;;21.00;55.30;;;;;;6183256;23;20348;-88
2023/01/15 02:38:24;;;;;;;2.07;1.50;;;21.00;55.30;;;;;;6158342;23;20374;-87
2023/01/15 02:40:55;;;;;;;2.13;1.60;;;20.90;55.30;;;;;;6183737;23;20372;-88
2023/01/15 02:43:23;;;;;;;2.93;1.80;;;21.00;55.30;;;;;;6158412;23;20399;-88
2023/01/15 02:45:55;;;;;;;1.57;1.40;;;20.90;55.30;;;;;;6183573;23;20364;-88
2023/01/15 02:48:26;;;;;;;1.67;1.20;;;20.90;55.30;;;;;;6183648;23;20341;-88
2023/01/15 02:51:00;;;;;;;1.80;1.50;;;21.00;55.30;;;;;;6183379;23;20388;-88
2023/01/15 02:53:28;;;;;;;1.80;1.50;;;20.90;55.30;;;;;;6158392;23;20431;-88
2023/01/15 02:56:05;;;;;;;2.07;1.60;;;20.90;55.30;;;;;;6158309;23;20361;-87
2023/01/15 02:58:34;;;;;;;1.97;1.40;;;20.90;55.30;;;;;;6158293;23;20367;-88
2023/01/15 03:01:06;;;;;;;1.43;1.20;;;20.90;55.30;;;;;;6157946;23;20383;-88
2023/01/15 03:03:37;;;;;;;1.97;1.50;;;20.90;55.30;;;;;;6157960;23;20368;-88
2023/01/15 03:06:23;;;;;;;1.83;1.40;;;20.90;55.30;;;;;;6183467;23;20364;-88
2023/01/15 03:08:51;;;;;;;1.83;1.67;;;20.90;55.30;;;;;;6157931;23;20399;-88
2023/01/15 03:11:18;;;;;;;1.80;1.40;;;20.90;55.30;;;;;;6157809;23;20470;-88
2023/01/15 03:14:15;;;;;;;1.60;1.50;;;20.90;55.30;;;;;;6183187;23;20352;-88
2023/01/15 03:16:55;;;;;;;2.20;1.60;;;20.90;55.30;;;;;;6157737;23;20396;-88
2023/01/15 03:19:21;;;;;;;1.90;1.60;;;20.90;55.30;;;;;;6183228;23;20367;-88
2023/01/15 03:21:54;;;;;;;1.83;1.47;;;20.90;55.30;;;;;;6157467;23;20459;-88
2023/01/15 03:24:45;;;;;;;1.77;1.67;;;20.90;55.30;;;;;;6183134;23;20160;-88
2023/01/15 03:27:11;;;;;;;1.83;1.20;;;20.90;55.30;;;;;;6166169;23;20380;-88
2023/01/15 03:29:41;;;;;;;2.27;1.30;;;20.90;55.30;;;;;;6158236;23;20428;-88
2023/01/15 03:32:08;;;;;;;1.83;1.63;;;20.90;55.30;;;;;;6183077;23;20416;-88
2023/01/15 03:34:47;;;;;;;1.70;1.47;;;20.90;55.30;;;;;;6157777;23;20431;-88
2023/01/15 03:37:13;;;;;;;2.20;1.37;;;20.90;55.30;;;;;;6183282;23;20352;-88
2023/01/15 03:39:40;;;;;;;1.70;1.30;;;20.90;55.30;;;;;;6157754;23;20372;-88
2023/01/15 03:42:35;;;;;;;2.60;1.50;;;20.90;55.30;;;;;;6158149;23;20364;-88
2023/01/15 03:45:32;;;;;;;1.40;1.30;;;20.90;55.30;;;;;;6164074;23;20364;-88
2023/01/15 03:48:18;;;;;;;1.80;1.60;;;20.90;55.30;;;;;;6178817;23;20464;-88
2023/01/15 03:50:55;;;;;;;2.40;1.70;;;20.90;55.30;;;;;;6158088;23;20450;-88
2023/01/15 03:53:52;;;;;;;1.70;1.30;;;20.80;55.30;;;;;;6183335;23;20371;-88
2023/01/15 03:56:35;;;;;;;2.17;1.40;;;20.90;55.30;;;;;;6157785;23;20372;-88
2023/01/15 03:59:05;;;;;;;1.37;1.27;;;20.90;55.40;;;;;;6183283;23;20368;-88
2023/01/15 04:01:36;;;;;;;1.80;1.40;;;20.80;55.30;;;;;;6183469;23;20417;-88
2023/01/15 04:04:03;;;;;;;1.60;1.30;;;20.90;55.40;;;;;;6183223;23;20380;-88
2023/01/15 04:06:34;;;;;;;1.83;1.20;;;20.80;55.30;;;;;;6157885;23;20376;-88
2023/01/15 04:09:05;;;;;;;1.90;1.60;;;20.90;55.40;;;;;;6183215;23;20352;-88
2023/01/15 04:11:31;;;;;;;2.00;1.30;;;20.80;55.30;;;;;;6157616;23;20400;-88
2023/01/15 04:13:57;;;;;;;1.80;1.43;;;20.90;55.30;;;;;;6157845;23;20399;-88
2023/01/15 04:16:28;;;;;;;1.20;1.00;;;20.90;55.30;;;;;;6157489;23;20383;-88
2023/01/15 04:19:01;;;;;;;1.60;1.30;;;20.90;55.30;;;;;;6157868;23;20378;-88
2023/01/15 04:21:27;;;;;;;1.53;1.30;;;20.90;55.30;;;;;;6182932;23;20426;-88
2023/01/15 04:23:53;;;;;;;1.40;1.30;;;20.90;55.30;;;;;;6157629;23;20360;-88
2023/01/15 04:26:22;;;;;;;1.47;1.33;;;20.90;55.30;;;;;;6183206;23;20153;-88
2023/01/15 04:28:48;;;;;;;1.63;1.40;;;20.90;55.30;;;;;;6157999;23;20402;-87
2023/01/15 04:31:14;;;;;;;1.40;1.20;;;20.90;55.30;;;;;;6182974;23;20388;-88
2023/01/15 04:33:40;;;;;;;1.30;1.00;;;20.90;55.30;;;;;;6157707;23;20356;-88
2023/01/15 04:36:09;;;;;;;1.87;1.10;;;20.90;55.30;;;;;;6183003;23;20384;-88
2023/01/15 04:38:37;;;;;;;1.40;1.13;;;20.90;55.30;;;;;;6182797;23;20364;-88
2023/01/15 04:44:07;;;;;;;1.80;1.50;;;20.90;55.30;;;;;;6183561;23;20359;-88
2023/01/15 04:46:47;;;;;;;1.53;1.43;;;20.90;55.30;;;;;;6184853;23;20371;-88
2023/01/15 04:49:16;;;;;;;1.70;1.50;;;20.80;55.30;;;;;;6184957;23;20359;-88
2023/01/15 04:51:43;;;;;;;1.63;1.27;;;20.80;55.30;;;;;;6184648;23;20406;-89
2023/01/15 04:54:11;;;;;;;1.37;1.17;;;20.80;55.30;;;;;;6184550;23;20364;-88
2023/01/15 04:56:40;;;;;;;1.90;1.50;;;20.80;55.30;;;;;;6159366;23;20404;-88
2023/01/15 04:59:10;;;;;;;1.77;1.20;;;20.80;55.30;;;;;;6159129;23;20368;-88
2023/01/15 05:01:36;;;;;;;1.83;1.40;;;20.80;55.30;;;;;;6159061;23;20466;-88
2023/01/15 05:04:02;;;;;;;1.30;1.20;;;20.80;55.30;;;;;;6183963;23;20399;-88
2023/01/15 05:06:31;;;;;;;1.30;1.10;;;20.80;55.30;;;;;;6185123;23;20387;-88
2023/01/15 05:08:58;;;;;;;1.50;1.40;;;20.80;55.30;;;;;;6159112;23;20378;-88
2023/01/15 05:11:24;;;;;;;1.40;1.30;;;20.80;55.30;;;;;;6159024;23;20439;-88
2023/01/15 05:13:50;;;;;;;1.73;1.60;;;20.80;55.30;;;;;;6184502;23;20348;-88
2023/01/15 05:16:18;;;;;;;1.87;1.30;;;20.80;55.30;;;;;;6158978;23;20399;-87
2023/01/15 05:18:46;;;;;;;1.50;1.40;;;20.80;55.30;;;;;;6184619;23;20148;-88
2023/01/15 05:21:20;;;;;;;1.53;1.20;;;20.80;55.30;;;;;;6184410;23;20380;-88
2023/01/15 05:23:47;;;;;;;1.33;1.13;;;20.80;55.30;;;;;;6184491;23;20347;-88
2023/01/15 05:26:13;;;;;;;2.23;1.50;;;20.80;55.30;;;;;;6184393;23;20376;-88
2023/01/15 05:28:39;;;;;;;1.87;1.23;;;20.80;55.30;;;;;;6158300;23;20364;-88
2023/01/15 05:31:07;;;;;;;2.20;1.40;;;20.80;55.30;;;;;;6184049;23;20434;-88
2023/01/15 05:33:32;;;;;;;1.37;1.10;;;20.80;55.30;;;;;;6184349;23;20163;-88
2023/01/15 05:36:12;;;;;;;1.60;1.40;;;20.80;55.30;;;;;;6158724;23;20356;-88
2023/01/15 05:38:39;;;;;;;1.83;1.50;;;20.80;55.30;;;;;;6157838;23;20144;-88
2023/01/15 05:44:04;;;;;;;1.57;1.20;;;20.80;55.30;;;;;;6184539;23;20387;-88
2023/01/15 05:46:32;;;;;;;1.97;1.50;;;20.80;55.30;;;;;;6158947;23;20383;-88
2023/01/15 05:49:07;;;;;;;1.20;1.10;;;20.80;55.30;;;;;;6183489;23;20364;-88
2023/01/15 05:51:34;;;;;;;1.80;1.23;;;20.80;55.30;;;;;;6158528;23;20478;-88
2023/01/15 05:54:01;;;;;;;1.50;1.20;;;20.80;55.40;;;;;;6184220;23;20444;-88
2023/01/15 05:56:27;;;;;;;1.60;1.20;;;20.80;55.30;;;;;;6133871;23;20387;-88
2023/01/15 05:58:53;;;;;;;1.30;1.10;;;20.80;55.30;;;;;;6183598;23;20376;-88
2023/01/15 06:01:23;;;;;;;1.37;1.17;;;20.80;55.30;;;;;;6184387;23;20381;-88
2023/01/15 06:03:52;;;;;;;1.40;1.17;;;20.80;55.30;;;;;;6184184;23;20388;-87
2023/01/15 06:06:18;;;;;;;1.77;1.50;;;20.80;55.30;;;;;;6184122;23;20364;-87
2023/01/15 06:08:46;;;;;;;1.23;1.10;;;20.80;55.30;;;;;;6184058;23;20372;-87
2023/01/15 06:11:12;;;;;;;1.60;1.30;;;20.80;55.30;;;;;;6183302;23;20422;-87
2023/01/15 06:13:46;;;;;;;1.57;1.23;;;20.80;55.30;;;;;;6183178;23;20375;-88
2023/01/15 06:16:11;;;;;;;1.70;1.10;;;20.80;55.30;;;;;;6183110;23;20398;-87
2023/01/15 06:18:41;;;;;;;1.70;1.30;;;20.80;55.30;;;;;;6133806;23;20391;-88
2023/01/15 06:21:10;;;;;;;1.20;1.10;;;20.90;55.30;;;;;;6179482;23;20171;-88
2023/01/15 06:23:39;;;;;;;1.50;1.27;;;20.80;55.20;;;;;;6158472;23;20404;-88
2023/01/15 06:26:17;;;;;;;1.27;1.00;;;20.80;55.20;;;;;;6184252;23;20356;-89
2023/01/15 06:28:43;;;;;;;1.23;1.03;;;20.90;55.30;;;;;;6158412;23;20380;-88
2023/01/15 06:31:11;;;;;;;1.87;1.40;;;20.90;55.30;;;;;;6158306;23;20418;-89
2023/01/15 06:33:38;;;;;;;1.10;0.90;;;20.90;55.30;;;;;;6184043;23;20362;-88
2023/01/15 06:36:13;;;;;;;1.87;1.37;;;20.90;55.30;;;;;;6184013;23;20360;-89
2023/01/15 06:38:39;;;;;;;1.80;1.13;;;20.90;55.30;;;;;;6158473;23;20436;-89
2023/01/15 06:47:19;;;;;;;1.30;1.20;;;20.90;55.30;;;;;;6158518;23;20388;-88
2023/01/15 06:49:26;;;;;;;1.30;1.20;;;20.90;55.30;;;;;;6183699;23;20445;-88
2023/01/15 06:51:53;;;;;;;1.10;1.00;;;20.90;55.30;;;;;;6158110;23;20408;-88
2023/01/15 06:54:19;;;;;;;1.50;1.30;;;20.90;55.30;;;;;;6183129;23;20145;-89
2023/01/15 06:56:45;;;;;;;1.70;1.30;;;20.90;55.30;;;;;;6183714;23;20419;-88
2023/01/15 06:59:17;;;;;;;1.60;1.07;;;20.90;55.30;;;;;;6183089;23;20147;-88
2023/01/15 07:01:43;;;;;;;1.30;1.20;;;20.90;55.30;;;;;;6183689;23;20380;-88
2023/01/15 07:04:09;;;;;;;1.43;1.23;;;20.90;55.30;;;;;;6182687;23;20380;-89
2023/01/15 07:06:42;;;;;;;1.33;1.10;;;21.00;55.40;;;;;;6183700;23;20375;-88
2023/01/15 07:09:10;;;;;;;1.73;1.30;;;21.00;55.40;;;;;;6182890;23;20337;-89
2023/01/15 07:11:48;;;;;;;1.57;1.40;;;21.00;55.40;;;;;;6183352;23;20395;-88
2023/01/15 07:14:32;;;;;;;1.40;1.17;;;21.00;55.40;;;;;;6183442;23;20347;-88
2023/01/15 07:16:58;;;;;;;1.40;1.30;;;21.00;55.30;;;;;;6158406;23;20403;-88
2023/01/15 07:19:27;;;;;;;1.33;1.10;;;21.10;55.40;;;;;;6183259;23;20380;-88
2023/01/15 07:21:56;;;;;;;1.20;1.10;;;21.10;55.40;;;;;;6158863;23;20404;-88
2023/01/15 07:24:28;;;;;;;1.47;1.20;;;21.20;55.50;;;;;;6158016;23;20380;-88
2023/01/15 07:26:57;;;;;;;1.30;1.00;;;21.10;55.40;;;;;;6158278;23;20402;-87
2023/01/15 07:29:22;;;;;;;1.50;1.40;;;21.20;55.40;;;;;;6182492;23;20380;-87
2023/01/15 07:31:49;;;;;;;1.67;1.27;;;21.20;55.90;;;;;;6183458;23;20395;-87
2023/01/15 07:37:00;;;;;;;1.40;1.30;;;21.20;55.30;;;;;;6211694;23;20440;-87
2023/01/15 07:39:31;;;;;;;1.27;1.10;;;21.20;55.30;;;;;;6187108;23;20363;-87
2023/01/15 07:50:28;;;;;;;1.40;1.30;;;21.30;55.30;;;;;;6213315;23;20346;-87
2023/01/15 07:53:00;;;;;;;1.30;1.17;;;21.30;55.30;;;;;;6187673;23;20371;-87
2023/01/15 07:55:38;;;;;;;;;;;;;;;;;;;;;
2023/01/15 07:58:05;;;;;;;1.20;0.97;;;21.30;55.30;;;;;;6196639;23;20375;-87
2023/01/15 08:00:36;;;;;;;1.07;0.97;;;21.40;55.30;;;;;;6187576;23;20390;-87
2023/01/15 08:03:08;;;;;;;1.00;0.90;;;21.40;55.30;;;;;;6187972;23;20151;-87
2023/01/15 08:05:52;;;;;;;1.50;1.03;;;21.40;55.30;;;;;;6213798;23;20354;-87
2023/01/15 08:08:20;;;;;;;1.27;1.10;;;21.40;55.30;;;;;;6198393;23;20370;-88
2023/01/15 08:16:18;;;;;;;1.00;0.90;;;21.40;55.20;;;;;;6213870;23;20375;-88
2023/01/15 08:18:51;;;;;;;1.27;1.10;;;21.40;55.20;;;;;;6187992;23;20375;-87
2023/01/15 08:21:55;;;;;;;1.63;1.20;;;21.40;55.20;;;;;;6215315;23;20140;-87
2023/01/15 08:24:21;;;;;;;1.30;1.10;;;21.40;55.20;;;;;;6157224;23;20744;-88
2023/01/15 08:26:55;;;;;;;1.73;1.10;;;21.40;55.20;;;;;;6215381;23;20371;-88
2023/01/15 08:29:27;;;;;;;1.70;1.10;;;21.40;55.20;;;;;;6215320;23;20446;-88
2023/01/15 08:32:16;;;;;;;1.20;0.93;;;21.40;55.20;;;;;;6189408;23;20422;-88
2023/01/15 08:34:49;;;;;;;1.53;1.20;;;21.40;55.20;;;;;;6189625;23;20379;-89
2023/01/15 08:37:23;;;;;;;1.70;1.53;;;21.50;55.20;;;;;;6181717;23;20379;-87
2023/01/15 08:39:52;;;;;;;1.57;1.03;;;21.50;55.20;;;;;;6189255;23;20377;-87
2023/01/15 08:42:28;;;;;;;1.07;0.93;;;21.50;55.20;;;;;;6214788;23;20367;-87
2023/01/15 08:45:18;;;;;;;1.30;1.10;;;21.50;55.20;;;;;;6188811;23;20378;-88
2023/01/15 08:47:44;;;;;;;1.23;1.10;;;21.50;55.20;;;;;;6215119;23;20377;-88
2023/01/15 08:50:14;;;;;;;1.43;1.00;;;21.50;55.20;;;;;;6213846;23;20360;-88
2023/01/15 08:52:40;;;;;;;1.43;1.10;;;21.50;55.20;;;;;;6184506;23;20360;-88
2023/01/15 08:55:17;;;;;;;1.37;1.10;;;21.50;55.20;;;;;;6184862;23;20383;-88
2023/01/15 08:57:50;;;;;;;1.63;1.20;;;21.50;55.20;;;;;;6184798;23;20359;-87
2023/01/15 09:00:46;;;;;;;;;;;;;;;;;;;;;
2023/01/15 09:03:23;;;;;;;1.20;1.00;;;21.50;55.20;;;;;;6185269;23;20349;-87
2023/01/15 09:05:57;;;;;;;1.20;1.10;;;21.50;55.30;;;;;;6184026;23;20403;-88
2023/01/15 09:08:23;;;;;;;1.20;1.10;;;21.50;55.30;;;;;;6184817;23;20358;-88
2023/01/15 09:11:03;;;;;;;1.20;1.10;;;21.50;55.30;;;;;;6184475;23;20391;-87
2023/01/15 09:13:32;;;;;;;1.30;1.10;;;21.50;55.30;;;;;;6159546;23;20172;-88
2023/01/15 09:16:11;;;;;;;1.20;1.00;;;21.50;55.20;;;;;;6184893;23;20387;-87
2023/01/15 09:18:42;;;;;;;1.63;1.00;;;21.50;55.20;;;;;;6159065;23;20372;-87
2023/01/15 09:21:45;;;;;;;;;;;;;;;;;;;;;
